createdAt,value
2016-12-03T00:00:21.263Z,21.13
2016-12-03T00:00:49.120Z,21.19
2016-12-03T00:01:17.587Z,21.14
2016-12-03T00:01:45.683Z,21.01
2016-12-03T00:02:13.899Z,21.16
2016-12-03T00:02:42.080Z,21.13
2016-12-03T00:03:10.161Z,21.04
2016-12-03T00:03:37.934Z,21.05
2016-12-03T00:04:06.005Z,21.02
2016-12-03T00:04:34.082Z,21.01
2016-12-03T00:05:01.871Z,21.04
2016-12-03T00:05:30.325Z,20.99
2016-12-03T00:05:58.469Z,20.89
2016-12-03T00:06:26.293Z,20.95
2016-12-03T00:06:54.769Z,20.98
2016-12-03T00:07:22.957Z,20.9
2016-12-03T00:07:50.819Z,20.87
2016-12-03T00:08:19.000Z,20.93
2016-12-03T00:08:47.055Z,20.9
2016-12-03T00:09:15.198Z,20.81
2016-12-03T00:09:42.941Z,20.87
2016-12-03T00:10:10.686Z,20.79
2016-12-03T00:10:38.536Z,20.76
2016-12-03T00:11:06.808Z,20.61
2016-12-03T00:11:34.677Z,20.66
2016-12-03T00:12:02.529Z,20.66
2016-12-03T00:12:30.329Z,20.68
2016-12-03T00:12:58.451Z,20.68
2016-12-03T00:13:26.624Z,20.65
2016-12-03T00:13:54.556Z,20.69
2016-12-03T00:14:22.673Z,20.66
2016-12-03T00:14:50.969Z,20.66
2016-12-03T00:15:19.075Z,20.59
2016-12-03T00:15:47.204Z,20.62
2016-12-03T00:16:15.357Z,20.58
2016-12-03T00:16:43.217Z,20.56
2016-12-03T00:17:11.311Z,20.62
2016-12-03T00:17:39.651Z,20.53
2016-12-03T00:18:07.499Z,20.53
2016-12-03T00:18:35.296Z,20.54
2016-12-03T00:19:03.069Z,20.56
2016-12-03T00:19:31.182Z,20.59
2016-12-03T00:19:59.365Z,20.61
2016-12-03T00:20:27.228Z,20.58
2016-12-03T00:20:55.128Z,20.54
2016-12-03T00:21:22.980Z,20.62
2016-12-03T00:21:50.784Z,20.53
2016-12-03T00:22:18.566Z,20.53
2016-12-03T00:22:46.678Z,20.61
2016-12-03T00:23:14.470Z,20.58
2016-12-03T00:23:42.551Z,20.54
2016-12-03T00:24:10.448Z,20.53
2016-12-03T00:24:38.221Z,20.53
2016-12-03T00:25:06.059Z,20.58
2016-12-03T00:25:33.945Z,20.56
2016-12-03T00:26:01.805Z,20.54
2016-12-03T00:26:29.666Z,20.56
2016-12-03T00:26:57.804Z,20.56
2016-12-03T00:27:25.920Z,20.61
2016-12-03T00:27:54.373Z,20.59
2016-12-03T00:28:22.537Z,20.58
2016-12-03T00:28:51.231Z,20.53
2016-12-03T00:29:19.016Z,20.64
2016-12-03T00:29:47.013Z,20.56
2016-12-03T00:30:15.484Z,20.51
2016-12-03T00:30:43.325Z,20.51
2016-12-03T00:31:11.099Z,20.51
2016-12-03T00:31:38.992Z,20.58
2016-12-03T00:32:07.154Z,20.53
2016-12-03T00:32:34.985Z,20.54
2016-12-03T00:33:03.662Z,20.56
2016-12-03T00:33:31.761Z,20.56
2016-12-03T00:33:59.525Z,20.47
2016-12-03T00:34:27.713Z,20.46
2016-12-03T00:34:55.639Z,20.47
2016-12-03T00:35:23.808Z,20.53
2016-12-03T00:36:06.221Z,20.42
2016-12-03T00:36:34.395Z,20.47
2016-12-03T00:37:02.315Z,20.53
2016-12-03T00:37:30.107Z,20.53
2016-12-03T00:37:58.487Z,20.49
2016-12-03T00:38:26.411Z,20.5
2016-12-03T00:38:54.636Z,20.53
2016-12-03T00:39:22.511Z,20.51
2016-12-03T00:40:05.261Z,20.51
2016-12-03T00:40:33.109Z,20.49
2016-12-03T00:41:01.201Z,20.47
2016-12-03T00:41:29.396Z,20.62
2016-12-03T00:41:57.174Z,20.51
2016-12-03T00:42:25.068Z,20.59
2016-12-03T00:42:53.288Z,20.54
2016-12-03T00:43:21.242Z,20.56
2016-12-03T00:43:49.220Z,20.49
2016-12-03T00:44:17.124Z,20.56
2016-12-03T00:44:44.921Z,20.51
2016-12-03T00:45:13.301Z,20.51
2016-12-03T00:45:41.148Z,20.49
2016-12-03T00:46:09.176Z,20.47
2016-12-03T00:46:37.050Z,20.42
2016-12-03T00:47:04.874Z,20.41
2016-12-03T00:47:33.313Z,20.47
2016-12-03T00:48:01.904Z,20.47
2016-12-03T00:48:29.758Z,20.53
2016-12-03T00:48:57.527Z,20.41
2016-12-03T00:49:25.751Z,20.49
2016-12-03T00:49:53.600Z,20.47
2016-12-03T00:50:21.342Z,20.5
2016-12-03T00:50:49.270Z,20.49
2016-12-03T00:51:17.993Z,20.47
2016-12-03T00:51:46.120Z,20.39
2016-12-03T00:52:28.687Z,20.42
2016-12-03T00:52:56.836Z,20.42
2016-12-03T00:53:24.661Z,20.5
2016-12-03T00:53:52.468Z,20.49
2016-12-03T00:54:20.596Z,20.43
2016-12-03T00:54:48.704Z,20.39
2016-12-03T00:55:16.579Z,20.51
2016-12-03T00:55:44.411Z,20.47
2016-12-03T00:56:12.289Z,20.51
2016-12-03T00:56:39.999Z,20.35
2016-12-03T00:57:07.743Z,20.43
2016-12-03T00:57:35.528Z,20.5
2016-12-03T00:58:04.000Z,20.49
2016-12-03T00:58:32.430Z,20.49
2016-12-03T00:59:00.327Z,20.39
2016-12-03T00:59:28.248Z,20.38
2016-12-03T00:59:55.997Z,20.43
2016-12-03T01:00:23.859Z,20.31
2016-12-03T01:00:51.724Z,20.43
2016-12-03T01:01:19.582Z,20.42
2016-12-03T01:02:02.059Z,20.34
2016-12-03T01:02:29.857Z,20.42
2016-12-03T01:02:57.979Z,20.35
2016-12-03T01:03:26.442Z,20.43
2016-12-03T01:03:54.548Z,20.33
2016-12-03T01:04:22.337Z,20.39
2016-12-03T01:04:50.203Z,20.31
2016-12-03T01:05:18.190Z,20.39
2016-12-03T01:05:46.004Z,20.35
2016-12-03T01:06:13.831Z,20.24
2016-12-03T01:06:42.165Z,20.24
2016-12-03T01:07:10.367Z,20.25
2016-12-03T01:07:38.240Z,20.3
2016-12-03T01:08:06.026Z,20.34
2016-12-03T01:08:33.880Z,20.24
2016-12-03T01:09:01.676Z,20.27
2016-12-03T01:09:29.483Z,20.31
2016-12-03T01:09:57.328Z,20.3
2016-12-03T01:10:25.112Z,20.38
2016-12-03T01:10:52.882Z,20.35
2016-12-03T01:11:20.693Z,20.28
2016-12-03T01:11:48.814Z,20.25
2016-12-03T01:12:16.670Z,20.3
2016-12-03T01:12:44.762Z,20.34
2016-12-03T01:13:12.598Z,20.31
2016-12-03T01:13:40.454Z,20.31
2016-12-03T01:14:08.285Z,20.25
2016-12-03T01:14:36.413Z,20.31
2016-12-03T01:15:04.553Z,20.33
2016-12-03T01:15:32.364Z,20.35
2016-12-03T01:16:01.031Z,20.33
2016-12-03T01:16:28.943Z,20.28
2016-12-03T01:16:56.735Z,20.3
2016-12-03T01:17:24.626Z,20.34
2016-12-03T01:17:52.497Z,20.31
2016-12-03T01:18:20.625Z,20.3
2016-12-03T01:18:49.082Z,20.34
2016-12-03T01:19:16.930Z,20.33
2016-12-03T01:19:44.996Z,20.34
2016-12-03T01:20:12.866Z,20.38
2016-12-03T01:20:41.312Z,20.3
2016-12-03T01:21:09.471Z,20.28
2016-12-03T01:21:37.260Z,20.23
2016-12-03T01:22:05.081Z,20.28
2016-12-03T01:22:33.445Z,20.28
2016-12-03T01:23:01.280Z,20.27
2016-12-03T01:23:29.447Z,20.3
2016-12-03T01:23:57.559Z,20.31
2016-12-03T01:24:25.346Z,20.28
2016-12-03T01:24:53.108Z,20.25
2016-12-03T01:25:20.941Z,20.21
2016-12-03T01:25:48.674Z,20.28
2016-12-03T01:26:16.400Z,20.2
2016-12-03T01:26:44.234Z,20.24
2016-12-03T01:27:12.074Z,20.24
2016-12-03T01:27:40.166Z,20.23
2016-12-03T01:28:08.298Z,20.21
2016-12-03T01:28:36.476Z,20.27
2016-12-03T01:29:04.478Z,20.24
2016-12-03T01:29:32.219Z,20.3
2016-12-03T01:30:00.061Z,20.27
2016-12-03T01:30:27.839Z,20.24
2016-12-03T01:30:55.767Z,20.27
2016-12-03T01:31:24.562Z,20.25
2016-12-03T01:31:52.703Z,20.23
2016-12-03T01:32:20.881Z,20.21
2016-12-03T01:32:48.707Z,20.27
2016-12-03T01:33:17.087Z,20.25
2016-12-03T01:33:45.275Z,20.25
2016-12-03T01:34:13.193Z,20.2
2016-12-03T01:34:41.068Z,20.28
2016-12-03T01:35:08.902Z,20.23
2016-12-03T01:35:36.898Z,20.24
2016-12-03T01:36:05.039Z,20.27
2016-12-03T01:36:33.262Z,20.25
2016-12-03T01:37:01.711Z,20.23
2016-12-03T01:37:29.540Z,20.12
2016-12-03T01:37:57.339Z,20.12
2016-12-03T01:38:25.494Z,20.13
2016-12-03T01:38:53.364Z,20.28
2016-12-03T01:39:21.157Z,20.23
2016-12-03T01:39:48.983Z,20.24
2016-12-03T01:40:17.123Z,20.24
2016-12-03T01:40:45.225Z,20.23
2016-12-03T01:41:13.373Z,20.21
2016-12-03T01:41:41.231Z,20.23
2016-12-03T01:42:09.074Z,20.23
2016-12-03T01:42:36.982Z,20.2
2016-12-03T01:43:05.392Z,20.28
2016-12-03T01:43:53.247Z,20.25
2016-12-03T01:44:21.079Z,20.27
2016-12-03T01:44:48.925Z,20.27
2016-12-03T01:45:17.445Z,20.25
2016-12-03T01:45:45.245Z,20.25
2016-12-03T01:46:13.083Z,20.18
2016-12-03T01:46:41.214Z,20.3
2016-12-03T01:47:09.061Z,20.13
2016-12-03T01:47:37.326Z,20.25
2016-12-03T01:48:05.478Z,20.2
2016-12-03T01:48:33.329Z,20.21
2016-12-03T01:49:01.163Z,20.15
2016-12-03T01:49:29.242Z,20.2
2016-12-03T01:49:57.386Z,20.13
2016-12-03T01:50:25.906Z,20.23
2016-12-03T01:50:54.018Z,20.24
2016-12-03T01:51:21.810Z,20.23
2016-12-03T01:51:49.918Z,20.24
2016-12-03T01:52:18.029Z,20.27
2016-12-03T01:52:46.158Z,20.2
2016-12-03T01:53:13.998Z,20.23
2016-12-03T01:53:42.070Z,20.21
2016-12-03T01:54:09.885Z,20.24
2016-12-03T01:54:38.526Z,20.27
2016-12-03T01:55:06.363Z,20.21
2016-12-03T01:55:34.273Z,20.25
2016-12-03T01:56:02.466Z,20.23
2016-12-03T01:56:30.270Z,20.13
2016-12-03T01:56:58.430Z,20.24
2016-12-03T01:57:26.582Z,20.21
2016-12-03T01:57:54.382Z,20.24
2016-12-03T01:58:22.219Z,20.16
2016-12-03T01:58:50.287Z,20.21
2016-12-03T01:59:18.358Z,20.13
2016-12-03T01:59:46.191Z,20.09
2016-12-03T02:00:13.893Z,20.1
2016-12-03T02:00:42.322Z,20.09
2016-12-03T02:01:10.195Z,20.08
2016-12-03T02:01:37.960Z,20.15
2016-12-03T02:02:06.150Z,20.13
2016-12-03T02:02:33.991Z,20.16
2016-12-03T02:03:02.485Z,20.09
2016-12-03T02:03:30.280Z,20.13
2016-12-03T02:03:58.023Z,20.09
2016-12-03T02:04:25.872Z,20.12
2016-12-03T02:04:54.119Z,20.18
2016-12-03T02:05:22.293Z,20.12
2016-12-03T02:05:50.140Z,20.1
2016-12-03T02:06:18.415Z,20.25
2016-12-03T02:06:46.266Z,20.24
2016-12-03T02:07:14.494Z,20.24
2016-12-03T02:07:42.337Z,20.23
2016-12-03T02:08:10.301Z,20.25
2016-12-03T02:08:38.048Z,20.23
2016-12-03T02:09:06.176Z,20.27
2016-12-03T02:09:34.024Z,20.27
2016-12-03T02:10:01.796Z,20.24
2016-12-03T02:10:29.871Z,20.24
2016-12-03T02:10:58.263Z,20.09
2016-12-03T02:11:26.078Z,20.2
2016-12-03T02:11:53.867Z,20.12
2016-12-03T02:12:22.043Z,20.24
2016-12-03T02:12:50.421Z,20.09
2016-12-03T02:13:18.922Z,20.15
2016-12-03T02:13:46.715Z,20.12
2016-12-03T02:14:14.544Z,20.09
2016-12-03T02:14:43.005Z,20.15
2016-12-03T02:15:10.803Z,20.16
2016-12-03T02:15:38.981Z,20.16
2016-12-03T02:16:07.142Z,20.16
2016-12-03T02:16:35.289Z,20.16
2016-12-03T02:17:03.405Z,20.1
2016-12-03T02:17:31.208Z,20.12
2016-12-03T02:17:59.276Z,20.08
2016-12-03T02:18:27.439Z,20.12
2016-12-03T02:18:56.485Z,20.12
2016-12-03T02:19:24.615Z,20.12
2016-12-03T02:19:52.400Z,20.02
2016-12-03T02:20:20.174Z,20.1
2016-12-03T02:20:48.313Z,20.13
2016-12-03T02:21:16.112Z,20.15
2016-12-03T02:21:43.944Z,20.13
2016-12-03T02:22:11.806Z,20.18
2016-12-03T02:22:39.726Z,20.23
2016-12-03T02:23:07.836Z,20.12
2016-12-03T02:23:35.644Z,20.09
2016-12-03T02:24:03.479Z,20.15
2016-12-03T02:24:31.319Z,20.12
2016-12-03T02:24:59.181Z,20.13
2016-12-03T02:25:27.636Z,20.13
2016-12-03T02:25:55.429Z,20.15
2016-12-03T02:26:23.736Z,20.13
2016-12-03T02:26:51.524Z,20.13
2016-12-03T02:27:19.704Z,19.98
2016-12-03T02:27:47.519Z,20.15
2016-12-03T02:28:15.374Z,20.12
2016-12-03T02:28:43.214Z,20.15
2016-12-03T02:29:11.024Z,20.12
2016-12-03T02:29:38.812Z,20.13
2016-12-03T02:30:06.987Z,20.13
2016-12-03T02:30:34.778Z,20
2016-12-03T02:31:02.934Z,20.13
2016-12-03T02:31:31.371Z,19.98
2016-12-03T02:31:59.177Z,20.09
2016-12-03T02:32:27.070Z,20.06
2016-12-03T02:32:54.880Z,19.98
2016-12-03T02:33:22.715Z,20.06
2016-12-03T02:33:50.869Z,19.98
2016-12-03T02:34:19.381Z,20
2016-12-03T02:34:47.172Z,20.03
2016-12-03T02:35:15.059Z,19.94
2016-12-03T02:35:43.163Z,19.95
2016-12-03T02:36:10.971Z,19.95
2016-12-03T02:36:38.713Z,19.98
2016-12-03T02:37:07.192Z,19.94
2016-12-03T02:37:34.982Z,20.02
2016-12-03T02:38:03.170Z,19.97
2016-12-03T02:38:31.236Z,19.98
2016-12-03T02:38:59.423Z,19.98
2016-12-03T02:39:27.231Z,19.97
2016-12-03T02:39:55.072Z,19.97
2016-12-03T02:40:23.077Z,20
2016-12-03T02:40:50.927Z,20.05
2016-12-03T02:41:18.824Z,20
2016-12-03T02:41:46.579Z,20
2016-12-03T02:42:14.334Z,19.95
2016-12-03T02:42:42.462Z,19.95
2016-12-03T02:43:10.553Z,20.02
2016-12-03T02:43:38.636Z,19.97
2016-12-03T02:44:06.420Z,19.94
2016-12-03T02:44:34.279Z,19.95
2016-12-03T02:45:02.120Z,19.91
2016-12-03T02:45:29.960Z,19.88
2016-12-03T02:45:57.736Z,19.95
2016-12-03T02:46:26.196Z,19.83
2016-12-03T02:46:54.574Z,19.91
2016-12-03T02:47:22.451Z,19.94
2016-12-03T02:47:50.306Z,19.87
2016-12-03T02:48:18.085Z,19.93
2016-12-03T02:48:45.929Z,19.93
2016-12-03T02:49:14.327Z,19.88
2016-12-03T02:49:42.439Z,19.86
2016-12-03T02:50:10.245Z,19.9
2016-12-03T02:50:38.418Z,19.9
2016-12-03T02:51:06.305Z,19.9
2016-12-03T02:51:34.944Z,19.91
2016-12-03T02:52:02.770Z,19.87
2016-12-03T02:52:30.786Z,19.84
2016-12-03T02:52:58.574Z,19.84
2016-12-03T02:53:26.373Z,19.86
2016-12-03T02:53:54.507Z,19.9
2016-12-03T02:54:22.325Z,19.91
2016-12-03T02:54:50.493Z,19.86
2016-12-03T02:55:18.665Z,19.94
2016-12-03T02:55:46.814Z,19.9
2016-12-03T02:56:15.603Z,19.9
2016-12-03T02:56:43.440Z,19.88
2016-12-03T02:57:11.221Z,19.94
2016-12-03T02:57:39.082Z,19.86
2016-12-03T02:58:06.821Z,19.84
2016-12-03T02:58:34.873Z,19.8
2016-12-03T02:59:02.728Z,19.86
2016-12-03T02:59:30.524Z,19.86
2016-12-03T02:59:58.327Z,19.84
2016-12-03T03:00:26.144Z,19.88
2016-12-03T03:00:54.293Z,19.84
2016-12-03T03:01:22.428Z,19.84
2016-12-03T03:01:50.370Z,19.86
2016-12-03T03:02:18.742Z,19.72
2016-12-03T03:02:46.591Z,19.8
2016-12-03T03:03:15.004Z,19.76
2016-12-03T03:03:43.073Z,19.8
2016-12-03T03:04:10.813Z,19.7
2016-12-03T03:04:38.972Z,19.66
2016-12-03T03:05:06.823Z,19.66
2016-12-03T03:05:34.950Z,19.75
2016-12-03T03:06:03.151Z,19.65
2016-12-03T03:06:31.338Z,19.65
2016-12-03T03:06:59.204Z,19.68
2016-12-03T03:07:27.454Z,19.69
2016-12-03T03:07:55.254Z,19.66
2016-12-03T03:08:23.088Z,19.63
2016-12-03T03:08:50.990Z,19.69
2016-12-03T03:09:18.890Z,19.66
2016-12-03T03:09:47.127Z,19.66
2016-12-03T03:10:14.974Z,19.69
2016-12-03T03:10:43.110Z,19.69
2016-12-03T03:11:11.005Z,19.7
2016-12-03T03:11:38.971Z,19.72
2016-12-03T03:12:07.120Z,19.69
2016-12-03T03:12:35.270Z,19.68
2016-12-03T03:13:03.268Z,19.63
2016-12-03T03:13:31.401Z,19.63
2016-12-03T03:13:59.199Z,19.73
2016-12-03T03:14:26.978Z,19.7
2016-12-03T03:14:54.780Z,19.75
2016-12-03T03:15:22.878Z,19.7
2016-12-03T03:15:51.018Z,19.87
2016-12-03T03:16:18.862Z,19.78
2016-12-03T03:16:47.045Z,19.84
2016-12-03T03:17:14.906Z,19.86
2016-12-03T03:17:42.796Z,19.84
2016-12-03T03:18:11.279Z,19.83
2016-12-03T03:18:39.751Z,19.83
2016-12-03T03:19:07.853Z,19.84
2016-12-03T03:19:35.951Z,19.8
2016-12-03T03:20:03.755Z,19.8
2016-12-03T03:20:31.878Z,19.76
2016-12-03T03:20:59.668Z,19.8
2016-12-03T03:21:27.755Z,19.7
2016-12-03T03:21:56.342Z,19.8
2016-12-03T03:22:24.174Z,19.79
2016-12-03T03:22:52.017Z,19.8
2016-12-03T03:23:19.821Z,19.79
2016-12-03T03:23:47.574Z,19.76
2016-12-03T03:24:15.417Z,19.7
2016-12-03T03:24:43.185Z,19.8
2016-12-03T03:25:10.970Z,19.72
2016-12-03T03:25:39.365Z,19.79
2016-12-03T03:26:07.209Z,19.73
2016-12-03T03:26:35.041Z,19.73
2016-12-03T03:27:02.853Z,19.79
2016-12-03T03:27:30.964Z,19.87
2016-12-03T03:27:59.130Z,19.83
2016-12-03T03:28:26.956Z,19.76
2016-12-03T03:28:54.757Z,19.8
2016-12-03T03:29:23.444Z,19.86
2016-12-03T03:29:51.204Z,19.78
2016-12-03T03:30:19.347Z,19.93
2016-12-03T03:30:47.507Z,19.91
2016-12-03T03:31:15.553Z,19.86
2016-12-03T03:31:43.637Z,19.93
2016-12-03T03:32:11.483Z,19.93
2016-12-03T03:32:39.296Z,19.93
2016-12-03T03:33:07.105Z,19.98
2016-12-03T03:33:35.241Z,19.93
2016-12-03T03:34:03.589Z,19.98
2016-12-03T03:34:32.002Z,19.98
2016-12-03T03:35:00.204Z,20.02
2016-12-03T03:35:27.994Z,20.05
2016-12-03T03:35:56.415Z,20.09
2016-12-03T03:36:24.489Z,20.08
2016-12-03T03:36:52.541Z,20.03
2016-12-03T03:37:20.393Z,20.08
2016-12-03T03:37:48.217Z,20.09
2016-12-03T03:38:16.338Z,20.09
2016-12-03T03:38:44.116Z,20.02
2016-12-03T03:39:11.906Z,20.03
2016-12-03T03:39:39.667Z,20.05
2016-12-03T03:40:07.425Z,20.03
2016-12-03T03:40:35.588Z,20.12
2016-12-03T03:41:03.451Z,20.02
2016-12-03T03:41:31.345Z,20.1
2016-12-03T03:41:59.536Z,20.12
2016-12-03T03:42:27.392Z,20.13
2016-12-03T03:42:55.267Z,20.13
2016-12-03T03:43:23.046Z,20.13
2016-12-03T03:43:50.937Z,20.12
2016-12-03T03:44:18.870Z,20.15
2016-12-03T03:44:46.663Z,20.09
2016-12-03T03:45:14.525Z,20.21
2016-12-03T03:45:42.992Z,20.12
2016-12-03T03:46:10.733Z,20.27
2016-12-03T03:46:38.878Z,20.16
2016-12-03T03:47:06.653Z,20.24
2016-12-03T03:47:34.484Z,20.21
2016-12-03T03:48:02.304Z,20.25
2016-12-03T03:48:30.039Z,20.27
2016-12-03T03:48:57.870Z,20.2
2016-12-03T03:49:25.993Z,20.24
2016-12-03T03:49:54.699Z,20.25
2016-12-03T03:50:22.531Z,20.2
2016-12-03T03:50:50.377Z,20.24
2016-12-03T03:51:18.478Z,20.28
2016-12-03T03:51:46.293Z,20.21
2016-12-03T03:52:14.376Z,20.23
2016-12-03T03:52:42.220Z,20.24
2016-12-03T03:53:10.690Z,20.23
2016-12-03T03:53:38.640Z,20.25
2016-12-03T03:54:06.470Z,20.28
2016-12-03T03:54:34.272Z,20.27
2016-12-03T03:55:02.081Z,20.23
2016-12-03T03:55:30.204Z,20.27
2016-12-03T03:55:58.337Z,20.27
2016-12-03T03:56:27.012Z,20.24
2016-12-03T03:56:54.836Z,20.24
2016-12-03T03:57:22.648Z,20.27
2016-12-03T03:57:50.500Z,20.24
2016-12-03T03:58:18.344Z,20.24
2016-12-03T03:58:46.418Z,20.27
2016-12-03T03:59:14.909Z,20.25
2016-12-03T03:59:43.013Z,20.27
2016-12-03T04:00:11.137Z,20.27
2016-12-03T04:00:39.311Z,20.24
2016-12-03T04:01:07.075Z,20.21
2016-12-03T04:01:34.888Z,20.23
2016-12-03T04:02:02.757Z,20.25
2016-12-03T04:02:30.584Z,20.18
2016-12-03T04:02:58.744Z,20.25
2016-12-03T04:03:26.857Z,20.25
2016-12-03T04:03:55.357Z,20.24
2016-12-03T04:04:23.119Z,20.18
2016-12-03T04:04:50.972Z,20.28
2016-12-03T04:05:19.188Z,20.23
2016-12-03T04:05:47.050Z,20.27
2016-12-03T04:06:15.151Z,20.23
2016-12-03T04:06:42.975Z,20.2
2016-12-03T04:07:10.766Z,20.25
2016-12-03T04:07:38.855Z,20.27
2016-12-03T04:08:07.233Z,20.28
2016-12-03T04:08:35.686Z,20.24
2016-12-03T04:09:03.511Z,20.25
2016-12-03T04:09:31.927Z,20.25
2016-12-03T04:09:59.637Z,20.23
2016-12-03T04:10:27.495Z,20.25
2016-12-03T04:10:55.306Z,20.3
2016-12-03T04:11:23.077Z,20.21
2016-12-03T04:11:51.484Z,20.2
2016-12-03T04:12:19.563Z,20.21
2016-12-03T04:12:47.403Z,20.25
2016-12-03T04:13:15.868Z,20.27
2016-12-03T04:13:44.004Z,20.25
2016-12-03T04:14:11.912Z,20.2
2016-12-03T04:14:39.674Z,20.3
2016-12-03T04:15:08.461Z,20.23
2016-12-03T04:15:36.181Z,20.3
2016-12-03T04:16:03.969Z,20.21
2016-12-03T04:16:32.096Z,20.27
2016-12-03T04:17:00.267Z,20.24
2016-12-03T04:17:28.773Z,20.2
2016-12-03T04:17:56.882Z,20.23
2016-12-03T04:18:24.630Z,20.24
2016-12-03T04:18:52.484Z,20.27
2016-12-03T04:19:20.571Z,20.28
2016-12-03T04:19:48.968Z,20.25
2016-12-03T04:20:16.762Z,20.25
2016-12-03T04:20:45.798Z,20.28
2016-12-03T04:21:13.593Z,20.18
2016-12-03T04:21:41.445Z,20.24
2016-12-03T04:22:09.472Z,20.27
2016-12-03T04:22:37.563Z,20.25
2016-12-03T04:23:05.430Z,20.3
2016-12-03T04:23:33.366Z,20.24
2016-12-03T04:24:01.368Z,20.23
2016-12-03T04:24:29.209Z,20.25
2016-12-03T04:24:56.942Z,20.24
2016-12-03T04:25:24.815Z,20.28
2016-12-03T04:25:52.931Z,20.3
2016-12-03T04:26:20.751Z,20.33
2016-12-03T04:26:48.566Z,20.35
2016-12-03T04:27:16.401Z,20.31
2016-12-03T04:27:44.285Z,20.27
2016-12-03T04:28:12.433Z,20.3
2016-12-03T04:28:40.306Z,20.28
2016-12-03T04:29:08.425Z,20.23
2016-12-03T04:29:36.573Z,20.3
2016-12-03T04:30:04.946Z,20.27
2016-12-03T04:30:33.081Z,20.3
2016-12-03T04:31:00.934Z,20.3
2016-12-03T04:31:29.064Z,20.25
2016-12-03T04:31:57.188Z,20.28
2016-12-03T04:32:25.419Z,20.24
2016-12-03T04:32:53.291Z,20.28
2016-12-03T04:33:21.083Z,20.27
2016-12-03T04:33:48.889Z,20.25
2016-12-03T04:34:17.084Z,20.25
2016-12-03T04:34:44.916Z,20.31
2016-12-03T04:35:12.770Z,20.25
2016-12-03T04:35:40.857Z,20.24
2016-12-03T04:36:08.648Z,20.31
2016-12-03T04:36:36.505Z,20.3
2016-12-03T04:37:04.309Z,20.25
2016-12-03T04:37:32.451Z,20.2
2016-12-03T04:38:00.325Z,20.28
2016-12-03T04:38:28.201Z,20.27
2016-12-03T04:38:56.639Z,20.2
2016-12-03T04:39:24.386Z,20.25
2016-12-03T04:39:52.536Z,20.23
2016-12-03T04:40:20.244Z,20.28
2016-12-03T04:40:48.377Z,20.3
2016-12-03T04:41:16.126Z,20.24
2016-12-03T04:41:44.177Z,20.25
2016-12-03T04:42:12.139Z,20.25
2016-12-03T04:42:40.352Z,20.18
2016-12-03T04:43:08.228Z,20.28
2016-12-03T04:43:36.403Z,20.27
2016-12-03T04:44:04.462Z,20.21
2016-12-03T04:44:32.559Z,20.27
2016-12-03T04:45:00.358Z,20.3
2016-12-03T04:45:28.336Z,20.3
2016-12-03T04:45:56.499Z,20.31
2016-12-03T04:46:24.235Z,20.39
2016-12-03T04:46:52.014Z,20.33
2016-12-03T04:47:19.807Z,20.38
2016-12-03T04:47:47.623Z,20.38
2016-12-03T04:48:15.430Z,20.38
2016-12-03T04:48:43.183Z,20.34
2016-12-03T04:49:11.021Z,20.39
2016-12-03T04:49:38.784Z,20.33
2016-12-03T04:50:06.610Z,20.38
2016-12-03T04:50:34.664Z,20.35
2016-12-03T04:51:02.463Z,20.34
2016-12-03T04:51:31.323Z,20.42
2016-12-03T04:51:59.489Z,20.35
2016-12-03T04:52:27.877Z,20.39
2016-12-03T04:52:55.786Z,20.35
2016-12-03T04:53:23.602Z,20.35
2016-12-03T04:53:51.518Z,20.3
2016-12-03T04:54:19.658Z,20.38
2016-12-03T04:54:48.098Z,20.35
2016-12-03T04:55:15.915Z,20.34
2016-12-03T04:55:44.045Z,20.31
2016-12-03T04:56:11.889Z,20.35
2016-12-03T04:56:39.740Z,20.31
2016-12-03T04:57:07.496Z,20.34
2016-12-03T04:57:35.627Z,20.33
2016-12-03T04:58:03.450Z,20.33
2016-12-03T04:58:31.255Z,20.35
2016-12-03T04:58:59.102Z,20.39
2016-12-03T04:59:26.856Z,20.39
2016-12-03T04:59:55.207Z,20.42
2016-12-03T05:00:23.352Z,20.39
2016-12-03T05:00:51.837Z,20.35
2016-12-03T05:01:19.604Z,20.35
2016-12-03T05:01:47.371Z,20.38
2016-12-03T05:02:15.199Z,20.34
2016-12-03T05:02:43.206Z,20.27
2016-12-03T05:03:11.001Z,20.28
2016-12-03T05:03:39.182Z,20.25
2016-12-03T05:04:06.951Z,20.28
2016-12-03T05:04:35.063Z,20.34
2016-12-03T05:05:02.844Z,20.34
2016-12-03T05:05:30.630Z,20.33
2016-12-03T05:05:58.479Z,20.24
2016-12-03T05:06:26.399Z,20.25
2016-12-03T05:06:54.299Z,20.25
2016-12-03T05:07:22.095Z,20.28
2016-12-03T05:07:50.207Z,20.25
2016-12-03T05:08:18.346Z,20.3
2016-12-03T05:08:46.202Z,20.27
2016-12-03T05:09:14.035Z,20.27
2016-12-03T05:09:42.732Z,20.28
2016-12-03T05:10:10.567Z,20.25
2016-12-03T05:10:38.448Z,20.21
2016-12-03T05:11:06.206Z,20.24
2016-12-03T05:11:33.930Z,20.27
2016-12-03T05:12:02.054Z,20.24
2016-12-03T05:12:30.455Z,20.18
2016-12-03T05:12:58.301Z,20.23
2016-12-03T05:13:26.097Z,20.25
2016-12-03T05:13:54.280Z,20.27
2016-12-03T05:14:22.439Z,20.27
2016-12-03T05:14:50.263Z,20.23
2016-12-03T05:15:18.417Z,20.25
2016-12-03T05:15:46.270Z,20.23
2016-12-03T05:16:14.099Z,20.12
2016-12-03T05:16:42.220Z,20.24
2016-12-03T05:17:09.992Z,20.24
2016-12-03T05:17:38.168Z,20.13
2016-12-03T05:18:06.292Z,20.25
2016-12-03T05:18:34.451Z,20.12
2016-12-03T05:19:02.674Z,20.23
2016-12-03T05:19:30.837Z,20.2
2016-12-03T05:19:58.951Z,20.09
2016-12-03T05:20:26.759Z,20.1
2016-12-03T05:20:54.573Z,20.1
2016-12-03T05:21:22.674Z,20.12
2016-12-03T05:21:50.496Z,20.12
2016-12-03T05:22:18.611Z,20.12
2016-12-03T05:22:46.564Z,20.15
2016-12-03T05:23:15.032Z,20.13
2016-12-03T05:23:42.831Z,20.16
2016-12-03T05:24:10.559Z,20.09
2016-12-03T05:24:38.636Z,20.23
2016-12-03T05:25:06.474Z,20.18
2016-12-03T05:25:34.306Z,20.21
2016-12-03T05:26:02.135Z,20.23
2016-12-03T05:26:30.043Z,20.27
2016-12-03T05:26:58.217Z,20.16
2016-12-03T05:27:26.334Z,20.13
2016-12-03T05:27:54.148Z,20.12
2016-12-03T05:28:21.963Z,20.16
2016-12-03T05:28:49.755Z,20.2
2016-12-03T05:29:17.582Z,20.12
2016-12-03T05:29:45.726Z,20.12
2016-12-03T05:30:13.487Z,20.09
2016-12-03T05:30:41.285Z,20.24
2016-12-03T05:31:09.385Z,20.2
2016-12-03T05:31:37.881Z,20.13
2016-12-03T05:32:05.700Z,20.13
2016-12-03T05:32:33.523Z,20.23
2016-12-03T05:33:01.545Z,20.09
2016-12-03T05:33:29.321Z,20.1
2016-12-03T05:33:57.165Z,20.28
2016-12-03T05:34:24.980Z,20.1
2016-12-03T05:34:52.862Z,20.2
2016-12-03T05:35:20.648Z,20.1
2016-12-03T05:35:48.821Z,20.15
2016-12-03T05:36:17.536Z,19.97
2016-12-03T05:36:45.721Z,19.98
2016-12-03T05:37:13.518Z,19.98
2016-12-03T05:37:41.342Z,20.02
2016-12-03T05:38:09.425Z,20.12
2016-12-03T05:38:37.458Z,19.98
2016-12-03T05:39:05.631Z,20.08
2016-12-03T05:39:34.127Z,20.1
2016-12-03T05:40:01.972Z,20.1
2016-12-03T05:40:30.121Z,20.09
2016-12-03T05:40:57.959Z,20.08
2016-12-03T05:41:26.120Z,20.05
2016-12-03T05:41:54.244Z,20.06
2016-12-03T05:42:22.090Z,19.98
2016-12-03T05:42:50.364Z,20.02
2016-12-03T05:43:18.209Z,20.02
2016-12-03T05:43:46.197Z,20.06
2016-12-03T05:44:14.301Z,20
2016-12-03T05:44:42.133Z,20.02
2016-12-03T05:45:10.253Z,19.95
2016-12-03T05:45:38.077Z,19.95
2016-12-03T05:46:05.887Z,20
2016-12-03T05:46:34.030Z,19.91
2016-12-03T05:47:02.117Z,19.87
2016-12-03T05:47:30.257Z,19.93
2016-12-03T05:47:58.697Z,19.88
2016-12-03T05:48:26.645Z,19.95
2016-12-03T05:48:54.819Z,19.98
2016-12-03T05:49:22.894Z,19.93
2016-12-03T05:49:50.873Z,19.87
2016-12-03T05:50:18.928Z,19.98
2016-12-03T05:51:01.480Z,19.9
2016-12-03T05:51:29.315Z,19.87
2016-12-03T05:51:57.611Z,19.93
2016-12-03T05:52:25.452Z,19.98
2016-12-03T05:52:53.747Z,19.9
2016-12-03T05:53:21.592Z,19.88
2016-12-03T05:53:49.484Z,19.9
2016-12-03T05:54:17.291Z,19.91
2016-12-03T05:54:45.051Z,19.9
2016-12-03T05:55:12.921Z,19.9
2016-12-03T05:55:40.760Z,19.91
2016-12-03T05:56:09.162Z,19.9
2016-12-03T05:56:37.001Z,19.87
2016-12-03T05:57:05.141Z,19.97
2016-12-03T05:57:33.319Z,19.88
2016-12-03T05:58:01.151Z,19.93
2016-12-03T05:58:29.302Z,19.87
2016-12-03T05:58:57.384Z,19.95
2016-12-03T05:59:25.177Z,19.91
2016-12-03T05:59:53.942Z,19.97
2016-12-03T06:00:21.837Z,19.8
2016-12-03T06:00:49.943Z,19.93
2016-12-03T06:01:17.708Z,19.88
2016-12-03T06:01:46.557Z,19.86
2016-12-03T06:02:14.546Z,19.86
2016-12-03T06:02:42.368Z,19.84
2016-12-03T06:03:10.260Z,19.91
2016-12-03T06:03:38.439Z,19.87
2016-12-03T06:04:06.216Z,19.88